Time,TemperatureF,DewpointF,PressureIn,WindDirection,WindDirectionDegrees,WindSpeedMPH,WindSpeedGustMPH,Humidity,HourlyPrecipIn,Conditions,Clouds,dailyrainin,SolarRadiationWatts/m^2,SoftwareType,DateUTC
2013-11-12 00:00:00,18.8,17.9,-100.00,NNE,29,0.0,1.8,96,0.00,,,-99.99,1.0,HOBO +U30 +Weather +,2013-11-12 07:00:00,
2013-11-12 00:05:00,18.7,17.7,-100.00,NNE,29,0.7,2.2,96,0.00,,,-99.99,1.0,HOBO +U30 +Weather +,2013-11-12 07:05:00,
2013-11-12 00:10:00,19.0,18.0,-100.00,NNE,29,1.1,2.9,96,0.00,,,-99.99,1.0,HOBO +U30 +Weather +,2013-11-12 07:10:00,
2013-11-12 00:15:00,19.0,18.1,-100.00,NNE,29,0.7,2.2,96,0.00,,,-99.99,1.0,HOBO +U30 +Weather +,2013-11-12 07:15:00,
2013-11-12 00:20:00,19.7,18.8,-100.00,NNE,29,0.0,1.1,96,0.00,,,-99.99,1.0,HOBO +U30 +Weather +,2013-11-12 07:20:00,
2013-11-12 00:25:00,19.9,18.9,-100.00,NNE,29,0.0,0.7,96,0.00,,,-99.99,1.0,HOBO +U30 +Weather +,2013-11-12 07:25:00,
2013-11-12 00:30:00,19.4,18.4,-100.00,NNE,29,0.0,1.1,95,0.00,,,-99.99,1.0,HOBO +U30 +Weather +,2013-11-12 07:30:00,
2013-11-12 00:35:00,19.1,18.1,-100.00,NNE,29,0.0,0.0,95,0.00,,,-99.99,1.0,HOBO +U30 +Weather +,2013-11-12 07:35:00,
2013-11-12 00:40:00,19.4,18.4,-100.00,NNE,29,0.0,0.0,96,0.00,,,-99.99,1.0,HOBO +U30 +Weather +,2013-11-12 07:40:00,
2013-11-12 00:45:00,19.4,18.4,-100.00,NNE,29,0.0,1.1,96,0.00,,,-99.99,1.0,HOBO +U30 +Weather +,2013-11-12 07:45:00,
2013-11-12 00:50:00,19.8,18.8,-100.00,NNE,29,0.0,1.1,96,0.00,,,-99.99,1.0,HOBO +U30 +Weather +,2013-11-12 07:50:00,
2013-11-12 00:55:00,19.6,18.7,-100.00,NNE,29,0.7,2.2,96,0.00,,,-99.99,1.0,HOBO +U30 +Weather +,2013-11-12 07:55:00,
2013-11-12 01:00:00,19.6,18.7,-100.00,NNE,29,0.0,0.7,96,0.00,,,-99.99,1.0,HOBO +U30 +Weather +,2013-11-12 08:00:00,
2013-11-12 01:05:00,19.9,19.0,-100.00,NNE,29,0.0,0.0,96,0.00,,,-99.99,1.0,HOBO +U30 +Weather +,2013-11-12 08:05:00,
2013-11-12 01:10:00,20.4,19.6,-100.00,NNE,29,0.0,0.7,96,0.00,,,-99.99,1.0,HOBO +U30 +Weather +,2013-11-12 08:10:00,
2013-11-12 01:15:00,20.2,19.2,-100.00,NNE,29,0.0,0.0,96,0.00,,,-99.99,1.0,HOBO +U30 +Weather +,2013-11-12 08:15:00,
2013-11-12 01:20:00,20.6,19.7,-100.00,NNE,29,0.0,0.0,96,0.00,,,-99.99,1.0,HOBO +U30 +Weather +,2013-11-12 08:20:00,
2013-11-12 01:25:00,19.8,18.8,-100.00,NNE,29,0.0,0.0,95,0.00,,,-99.99,1.0,HOBO +U30 +Weather +,2013-11-12 08:25:00,
2013-11-12 01:35:00,21.8,20.9,-100.00,NNE,29,0.0,0.0,96,0.00,,,-99.99,1.0,HOBO +U30 +Weather +,2013-11-12 08:35:00,
2013-11-12 01:36:00,21.1,20.3,-100.00,NNE,29,0.0,0.0,96,0.00,,,-99.99,1.0,HOBO +U30 +Weather +,2013-11-12 08:36:00,
2013-11-12 01:40:00,21.7,20.8,-100.00,NNE,29,0.0,0.0,96,0.00,,,-99.99,1.0,HOBO +U30 +Weather +,2013-11-12 08:40:00,
2013-11-12 01:45:00,21.2,20.2,-100.00,NNE,29,0.0,0.0,96,0.00,,,-99.99,1.0,HOBO +U30 +Weather +,2013-11-12 08:45:00,
2013-11-12 01:50:00,20.7,19.7,-100.00,NNE,29,0.0,0.0,96,0.00,,,-99.99,1.0,HOBO +U30 +Weather +,2013-11-12 08:50:00,
2013-11-12 01:55:00,20.5,19.6,-100.00,NNE,29,0.0,0.0,96,0.00,,,-99.99,1.0,HOBO +U30 +Weather +,2013-11-12 08:55:00,
2013-11-12 02:00:00,20.7,19.8,-100.00,NNE,29,0.0,0.0,96,0.00,,,-99.99,1.0,HOBO +U30 +Weather +,2013-11-12 09:00:00,
2013-11-12 02:05:00,20.9,20.1,-100.00,NNE,29,0.0,0.0,96,0.00,,,-99.99,1.0,HOBO +U30 +Weather +,2013-11-12 09:05:00,
2013-11-12 02:10:00,20.2,19.2,-100.00,NNE,29,0.0,0.0,96,0.00,,,-99.99,1.0,HOBO +U30 +Weather +,2013-11-12 09:10:00,
2013-11-12 02:15:00,20.8,20.0,-100.00,NNE,29,0.0,0.0,96,0.00,,,-99.99,1.0,HOBO +U30 +Weather +,2013-11-12 09:15:00,
2013-11-12 02:20:00,20.0,19.0,-100.00,NNE,29,0.0,1.1,96,0.00,,,-99.99,1.0,HOBO +U30 +Weather +,2013-11-12 09:20:00,
2013-11-12 02:25:00,20.3,19.5,-100.00,NNE,29,0.0,1.1,96,0.00,,,-99.99,1.0,HOBO +U30 +Weather +,2013-11-12 09:25:00,
2013-11-12 02:30:00,19.9,19.0,-100.00,NNE,29,0.0,1.1,96,0.00,,,-99.99,1.0,HOBO +U30 +Weather +,2013-11-12 09:30:00,
2013-11-12 02:35:00,19.2,18.2,-100.00,NNE,29,0.0,0.0,96,0.00,,,-99.99,1.0,HOBO +U30 +Weather +,2013-11-12 09:35:00,
2013-11-12 02:40:00,19.0,18.0,-100.00,NNE,29,0.0,0.0,96,0.00,,,-99.99,1.0,HOBO +U30 +Weather +,2013-11-12 09:40:00,
2013-11-12 02:45:00,19.1,18.2,-100.00,NNE,29,0.0,0.0,96,0.00,,,-99.99,1.0,HOBO +U30 +Weather +,2013-11-12 09:45:00,
2013-11-12 02:50:00,20.3,19.5,-100.00,NNE,29,0.0,0.0,96,0.00,,,-99.99,1.0,HOBO +U30 +Weather +,2013-11-12 09:50:00,
2013-11-12 02:55:00,19.7,18.8,-100.00,NNE,29,0.0,0.0,96,0.00,,,-99.99,1.0,HOBO +U30 +Weather +,2013-11-12 09:55:00,
2013-11-12 03:00:00,19.9,19.0,-100.00,NNE,29,0.0,0.0,96,0.00,,,-99.99,1.0,HOBO +U30 +Weather +,2013-11-12 10:00:00,
2013-11-12 03:05:00,19.6,18.8,-100.00,NNE,29,0.0,0.0,96,0.00,,,-99.99,1.0,HOBO +U30 +Weather +,2013-11-12 10:05:00,
2013-11-12 03:10:00,19.6,18.7,-100.00,NNE,29,0.0,0.0,96,0.00,,,-99.99,1.0,HOBO +U30 +Weather +,2013-11-12 10:10:00,
2013-11-12 03:15:00,19.7,18.8,-100.00,NNE,29,0.0,0.7,96,0.00,,,-99.99,1.0,HOBO +U30 +Weather +,2013-11-12 10:15:00,
2013-11-12 03:20:00,19.7,18.8,-100.00,NNE,29,0.0,0.0,96,0.00,,,-99.99,1.0,HOBO +U30 +Weather +,2013-11-12 10:20:00,
2013-11-12 03:33:00,19.9,19.0,-100.00,NNE,29,0.0,0.0,96,0.00,,,-99.99,1.0,HOBO +U30 +Weather +,2013-11-12 10:33:00,
2013-11-12 03:35:00,21.4,20.6,-100.00,NNE,29,0.0,0.0,96,0.00,,,-99.99,1.0,HOBO +U30 +Weather +,2013-11-12 10:35:00,
2013-11-12 03:40:00,20.2,19.2,-100.00,NNE,29,0.0,0.0,96,0.00,,,-99.99,1.0,HOBO +U30 +Weather +,2013-11-12 10:40:00,
2013-11-12 03:45:00,19.6,18.7,-100.00,NNE,29,0.0,0.0,96,0.00,,,-99.99,1.0,HOBO +U30 +Weather +,2013-11-12 10:45:00,
2013-11-12 03:50:00,20.0,19.1,-100.00,NNE,29,0.0,0.0,96,0.00,,,-99.99,1.0,HOBO +U30 +Weather +,2013-11-12 10:50:00,
2013-11-12 03:55:00,19.6,18.7,-100.00,NNE,29,0.0,0.0,96,0.00,,,-99.99,1.0,HOBO +U30 +Weather +,2013-11-12 10:55:00,
2013-11-12 04:00:00,19.3,18.4,-100.00,NNE,29,0.0,1.1,96,0.00,,,-99.99,1.0,HOBO +U30 +Weather +,2013-11-12 11:00:00,
2013-11-12 04:05:00,19.2,18.3,-100.00,NNW,348,0.7,2.2,96,0.00,,,-99.99,1.0,HOBO +U30 +Weather +,2013-11-12 11:05:00,
2013-11-12 04:10:00,19.0,18.1,-100.00,NNW,337,0.7,2.2,96,0.00,,,-99.99,1.0,HOBO +U30 +Weather +,2013-11-12 11:10:00,
2013-11-12 04:15:00,19.0,18.0,-100.00,NNW,337,0.7,2.2,96,0.00,,,-99.99,1.0,HOBO +U30 +Weather +,2013-11-12 11:15:00,
2013-11-12 04:20:00,18.8,17.8,-100.00,NNW,337,0.0,1.1,96,0.00,,,-99.99,1.0,HOBO +U30 +Weather +,2013-11-12 11:20:00,
2013-11-12 04:25:00,18.9,17.9,-100.00,NNW,344,0.7,2.2,96,0.00,,,-99.99,1.0,HOBO +U30 +Weather +,2013-11-12 11:25:00,
2013-11-12 04:30:00,18.8,17.8,-100.00,North,351,0.7,2.2,96,0.00,,,-99.99,1.0,HOBO +U30 +Weather +,2013-11-12 11:30:00,
2013-11-12 04:35:00,18.8,17.9,-100.00,North,351,0.0,0.0,96,0.00,,,-99.99,1.0,HOBO +U30 +Weather +,2013-11-12 11:35:00,
2013-11-12 04:40:00,20.4,19.5,-100.00,North,351,0.0,0.0,96,0.00,,,-99.99,1.0,HOBO +U30 +Weather +,2013-11-12 11:40:00,
2013-11-12 04:45:00,19.9,18.8,-100.00,North,351,0.0,0.0,95,0.00,,,-99.99,1.0,HOBO +U30 +Weather +,2013-11-12 11:45:00,
2013-11-12 04:50:00,18.8,17.7,-100.00,North,351,0.0,0.7,95,0.00,,,-99.99,1.0,HOBO +U30 +Weather +,2013-11-12 11:50:00,
2013-11-12 04:55:00,18.8,17.7,-100.00,North,351,0.0,0.0,95,0.00,,,-99.99,1.0,HOBO +U30 +Weather +,2013-11-12 11:55:00,
2013-11-12 05:00:00,19.2,18.2,-100.00,North,351,0.0,0.0,95,0.00,,,-99.99,1.0,HOBO +U30 +Weather +,2013-11-12 12:00:00,
2013-11-12 05:05:00,18.6,17.6,-100.00,North,351,0.0,0.0,95,0.00,,,-99.99,1.0,HOBO +U30 +Weather +,2013-11-12 12:05:00,
2013-11-12 05:10:00,18.6,17.6,-100.00,North,351,0.0,0.0,95,0.00,,,-99.99,1.0,HOBO +U30 +Weather +,2013-11-12 12:10:00,
2013-11-12 05:15:00,18.5,17.5,-100.00,North,351,0.0,0.0,95,0.00,,,-99.99,1.0,HOBO +U30 +Weather +,2013-11-12 12:15:00,
2013-11-12 05:20:00,18.0,16.9,-100.00,North,351,0.0,0.7,95,0.00,,,-99.99,1.0,HOBO +U30 +Weather +,2013-11-12 12:20:00,
2013-11-12 05:31:00,18.1,17.1,-100.00,North,351,0.0,0.0,95,0.00,,,-99.99,1.0,HOBO +U30 +Weather +,2013-11-12 12:31:00,
2013-11-12 05:35:00,18.5,17.5,-100.00,North,351,0.0,1.1,95,0.00,,,-99.99,1.0,HOBO +U30 +Weather +,2013-11-12 12:35:00,
2013-11-12 05:40:00,18.4,17.3,-100.00,North,355,0.7,2.9,95,0.00,,,-99.99,1.0,HOBO +U30 +Weather +,2013-11-12 12:40:00,
2013-11-12 05:45:00,18.4,17.3,-100.00,North,3,1.8,2.9,95,0.00,,,-99.99,1.0,HOBO +U30 +Weather +,2013-11-12 12:45:00,
2013-11-12 05:50:00,18.5,17.4,-100.00,North,1,1.8,3.4,95,0.00,,,-99.99,1.0,HOBO +U30 +Weather +,2013-11-12 12:50:00,
2013-11-12 05:55:00,18.2,17.1,-100.00,North,10,2.2,3.4,95,0.00,,,-99.99,1.0,HOBO +U30 +Weather +,2013-11-12 12:55:00,
2013-11-12 06:00:00,18.2,17.2,-100.00,NNE,22,1.8,3.4,95,0.00,,,-99.99,1.0,HOBO +U30 +Weather +,2013-11-12 13:00:00,
2013-11-12 06:05:00,18.2,17.1,-100.00,NE,38,1.1,2.9,95,0.00,,,-99.99,1.0,HOBO +U30 +Weather +,2013-11-12 13:05:00,
2013-11-12 06:10:00,18.0,17.0,-100.00,NE,42,1.1,2.2,95,0.00,,,-99.99,1.0,HOBO +U30 +Weather +,2013-11-12 13:10:00,
2013-11-12 06:15:00,17.5,16.4,-100.00,NE,42,0.7,2.2,95,0.00,,,-99.99,1.0,HOBO +U30 +Weather +,2013-11-12 13:15:00,
2013-11-12 06:20:00,17.5,16.5,-100.00,NNE,32,2.2,4.5,95,0.00,,,-99.99,1.0,HOBO +U30 +Weather +,2013-11-12 13:20:00,
2013-11-12 06:30:00,17.4,16.3,-100.00,NNE,27,2.9,5.1,95,0.00,,,-99.99,1.0,HOBO +U30 +Weather +,2013-11-12 13:30:00,
2013-11-12 06:35:00,17.0,16.0,-100.00,NNE,32,2.9,5.6,95,0.00,,,-99.99,1.0,HOBO +U30 +Weather +,2013-11-12 13:35:00,
2013-11-12 06:40:00,16.9,15.9,-100.00,NE,35,1.8,4.0,95,0.00,,,-99.99,1.0,HOBO +U30 +Weather +,2013-11-12 13:40:00,
2013-11-12 06:45:00,17.0,15.9,-100.00,NE,35,1.1,3.4,95,0.00,,,-99.99,1.0,HOBO +U30 +Weather +,2013-11-12 13:45:00,
2013-11-12 06:50:00,16.8,15.8,-100.00,NE,35,0.7,2.2,95,0.00,,,-99.99,1.0,HOBO +U30 +Weather +,2013-11-12 13:50:00,
2013-11-12 06:55:00,17.1,16.1,-100.00,NE,35,1.8,3.4,95,0.00,,,-99.99,1.0,HOBO +U30 +Weather +,2013-11-12 13:55:00,
2013-11-12 07:00:00,17.0,15.9,-100.00,NNE,27,2.2,4.5,95,0.00,,,-99.99,2.0,HOBO +U30 +Weather +,2013-11-12 14:00:00,
2013-11-12 07:05:00,16.8,15.7,-100.00,NNE,27,2.2,4.0,95,0.00,,,-99.99,2.0,HOBO +U30 +Weather +,2013-11-12 14:05:00,
2013-11-12 07:10:00,17.0,15.9,-100.00,NNE,29,2.9,5.6,95,0.00,,,-99.99,4.0,HOBO +U30 +Weather +,2013-11-12 14:10:00,
2013-11-12 07:15:00,16.8,15.8,-100.00,NE,34,1.8,4.0,95,0.00,,,-99.99,6.0,HOBO +U30 +Weather +,2013-11-12 14:15:00,
2013-11-12 07:29:00,17.0,15.9,-100.00,NE,34,2.2,3.4,95,0.00,,,-99.99,8.0,HOBO +U30 +Weather +,2013-11-12 14:29:00,
2013-11-12 07:30:00,17.1,16.1,-100.00,NNE,32,1.8,4.0,95,0.00,,,-99.99,12.0,HOBO +U30 +Weather +,2013-11-12 14:30:00,
2013-11-12 07:35:00,17.1,16.1,-100.00,NE,39,2.9,5.1,95,0.00,,,-99.99,18.0,HOBO +U30 +Weather +,2013-11-12 14:35:00,
2013-11-12 07:40:00,18.0,16.9,-100.00,NNE,28,2.2,4.5,95,0.00,,,-99.99,56.0,HOBO +U30 +Weather +,2013-11-12 14:40:00,
2013-11-12 07:45:00,18.4,17.2,-100.00,NE,34,1.8,3.4,95,0.00,,,-99.99,53.0,HOBO +U30 +Weather +,2013-11-12 14:45:00,
2013-11-12 07:50:00,18.3,17.1,-100.00,NE,44,1.8,3.4,95,0.00,,,-99.99,51.0,HOBO +U30 +Weather +,2013-11-12 14:50:00,
2013-11-12 07:55:00,18.5,17.3,-100.00,NE,45,1.1,4.0,95,0.00,,,-99.99,89.0,HOBO +U30 +Weather +,2013-11-12 14:55:00,
2013-11-12 08:00:00,19.1,17.9,-100.00,NE,55,1.1,5.1,95,0.00,,,-99.99,57.0,HOBO +U30 +Weather +,2013-11-12 15:00:00,
2013-11-12 08:05:00,19.5,18.3,-100.00,North,1,0.7,3.4,95,0.00,,,-99.99,103.0,HOBO +U30 +Weather +,2013-11-12 15:05:00,
2013-11-12 08:10:00,19.8,18.6,-100.00,North,6,1.1,2.9,95,0.00,,,-99.99,127.0,HOBO +U30 +Weather +,2013-11-12 15:10:00,
2013-11-12 08:15:00,21.0,19.9,-100.00,North,0,1.8,4.0,95,0.00,,,-99.99,144.0,HOBO +U30 +Weather +,2013-11-12 15:15:00,
2013-11-12 08:28:00,21.1,19.9,-100.00,North,3,0.7,3.4,95,0.00,,,-99.99,158.0,HOBO +U30 +Weather +,2013-11-12 15:28:00,
2013-11-12 08:30:00,23.6,22.5,-100.00,NNE,28,0.0,0.7,95,0.00,,,-99.99,183.0,HOBO +U30 +Weather +,2013-11-12 15:30:00,
2013-11-12 08:35:00,24.4,22.9,-100.00,NNE,28,0.0,2.2,94,0.00,,,-99.99,197.0,HOBO +U30 +Weather +,2013-11-12 15:35:00,
2013-11-12 08:40:00,24.8,23.2,-100.00,NNE,28,0.0,1.8,93,0.00,,,-99.99,202.0,HOBO +U30 +Weather +,2013-11-12 15:40:00,
2013-11-12 08:45:00,25.0,23.2,-100.00,NNE,28,0.0,2.2,92,0.00,,,-99.99,209.0,HOBO +U30 +Weather +,2013-11-12 15:45:00,
2013-11-12 08:50:00,25.7,23.8,-100.00,NNE,28,0.7,2.9,92,0.00,,,-99.99,221.0,HOBO +U30 +Weather +,2013-11-12 15:50:00,
2013-11-12 08:55:00,26.7,24.5,-100.00,NNE,32,0.0,3.4,91,0.00,,,-99.99,228.0,HOBO +U30 +Weather +,2013-11-12 15:55:00,
2013-11-12 09:00:00,27.6,25.3,-100.00,NE,34,0.0,1.1,90,0.00,,,-99.99,234.0,HOBO +U30 +Weather +,2013-11-12 16:00:00,
2013-11-12 09:05:00,28.3,25.1,-100.00,NE,34,0.0,0.7,87,0.00,,,-99.99,244.0,HOBO +U30 +Weather +,2013-11-12 16:05:00,
2013-11-12 09:10:00,28.2,24.9,-100.00,NNW,347,0.0,1.8,87,0.00,,,-99.99,252.0,HOBO +U30 +Weather +,2013-11-12 16:10:00,
2013-11-12 09:15:00,29.6,25.9,-100.00,NNW,334,0.0,1.1,85,0.00,,,-99.99,259.0,HOBO +U30 +Weather +,2013-11-12 16:15:00,
2013-11-12 09:27:00,30.1,25.8,-100.00,NW,321,0.7,1.8,83,0.00,,,-99.99,268.0,HOBO +U30 +Weather +,2013-11-12 16:27:00,
2013-11-12 09:30:00,30.8,26.9,-100.00,SSW,192,4.5,5.6,85,0.00,,,-99.99,286.0,HOBO +U30 +Weather +,2013-11-12 16:30:00,
2013-11-12 09:35:00,31.6,27.6,-100.00,South,183,4.0,6.3,84,0.00,,,-99.99,306.0,HOBO +U30 +Weather +,2013-11-12 16:35:00,
2013-11-12 09:40:00,32.9,28.7,-100.00,South,181,4.0,6.3,84,0.00,,,-99.99,334.0,HOBO +U30 +Weather +,2013-11-12 16:40:00,
2013-11-12 09:45:00,33.9,29.7,-100.00,South,180,4.5,6.3,84,0.00,,,-99.99,339.0,HOBO +U30 +Weather +,2013-11-12 16:45:00,
2013-11-12 09:50:00,34.7,30.0,-100.00,South,178,4.0,5.6,82,0.00,,,-99.99,347.0,HOBO +U30 +Weather +,2013-11-12 16:50:00,
2013-11-12 09:55:00,35.6,30.7,-100.00,South,177,4.0,6.3,82,0.00,,,-99.99,353.0,HOBO +U30 +Weather +,2013-11-12 16:55:00,
2013-11-12 10:00:00,36.8,31.5,-100.00,South,175,4.0,6.3,80,0.00,,,-99.99,359.0,HOBO +U30 +Weather +,2013-11-12 17:00:00,
2013-11-12 10:05:00,37.6,32.1,-100.00,SSE,167,4.0,6.3,80,0.00,,,-99.99,366.0,HOBO +U30 +Weather +,2013-11-12 17:05:00,
2013-11-12 10:10:00,38.2,32.4,-100.00,SSE,157,5.1,6.7,79,0.00,,,-99.99,372.0,HOBO +U30 +Weather +,2013-11-12 17:10:00,
2013-11-12 10:15:00,39.8,33.4,-100.00,SSE,163,4.0,6.3,77,0.00,,,-99.99,378.0,HOBO +U30 +Weather +,2013-11-12 17:15:00,
2013-11-12 10:25:00,40.2,33.5,-100.00,SSW,204,3.4,5.1,76,0.00,,,-99.99,382.0,HOBO +U30 +Weather +,2013-11-12 17:25:00,
2013-11-12 10:30:00,40.7,33.6,-100.00,South,184,5.6,7.4,75,0.14,,,-99.99,393.0,HOBO +U30 +Weather +,2013-11-12 17:30:00,
2013-11-12 10:35:00,41.2,34.0,-100.00,South,183,6.3,7.8,75,0.14,,,-99.99,398.0,HOBO +U30 +Weather +,2013-11-12 17:35:00,
2013-11-12 10:40:00,42.1,34.4,-100.00,South,184,5.6,6.7,74,0.14,,,-99.99,402.0,HOBO +U30 +Weather +,2013-11-12 17:40:00,
2013-11-12 10:45:00,42.5,34.6,-100.00,South,180,5.6,7.4,73,0.14,,,-99.99,407.0,HOBO +U30 +Weather +,2013-11-12 17:45:00,
2013-11-12 10:50:00,42.9,34.7,-100.00,South,180,5.6,7.8,72,0.14,,,-99.99,412.0,HOBO +U30 +Weather +,2013-11-12 17:50:00,
2013-11-12 10:55:00,43.8,35.0,-100.00,South,178,5.1,6.7,71,0.00,,,-99.99,416.0,HOBO +U30 +Weather +,2013-11-12 17:55:00,
2013-11-12 11:00:00,44.4,35.4,-100.00,South,180,5.1,6.7,70,0.00,,,-99.99,419.0,HOBO +U30 +Weather +,2013-11-12 18:00:00,
2013-11-12 11:05:00,45.2,35.6,-100.00,South,175,4.5,6.3,68,0.00,,,-99.99,422.0,HOBO +U30 +Weather +,2013-11-12 18:05:00,
2013-11-12 11:10:00,45.6,35.8,-100.00,SSE,156,4.5,6.3,68,0.00,,,-99.99,423.0,HOBO +U30 +Weather +,2013-11-12 18:10:00,
2013-11-12 11:24:00,46.5,36.3,-100.00,SSE,161,4.0,6.3,67,0.00,,,-99.99,427.0,HOBO +U30 +Weather +,2013-11-12 18:24:00,
2013-11-12 11:25:00,48.0,37.1,-100.00,SSE,157,2.9,5.1,65,0.00,,,-99.99,432.0,HOBO +U30 +Weather +,2013-11-12 18:25:00,
2013-11-12 11:30:00,47.6,36.3,-100.00,SSE,163,3.4,6.3,64,0.00,,,-99.99,434.0,HOBO +U30 +Weather +,2013-11-12 18:30:00,
2013-11-12 11:35:00,47.5,36.2,-100.00,SSE,167,4.5,6.7,64,0.00,,,-99.99,436.0,HOBO +U30 +Weather +,2013-11-12 18:35:00,
2013-11-12 11:40:00,48.0,36.5,-100.00,SSE,164,5.1,7.8,64,0.00,,,-99.99,437.0,HOBO +U30 +Weather +,2013-11-12 18:40:00,
2013-11-12 11:45:00,48.8,36.7,-100.00,South,181,4.0,6.7,62,0.00,,,-99.99,438.0,HOBO +U30 +Weather +,2013-11-12 18:45:00,
2013-11-12 11:50:00,48.2,36.8,-100.00,SSE,160,5.1,7.4,64,0.00,,,-99.99,439.0,HOBO +U30 +Weather +,2013-11-12 18:50:00,
2013-11-12 11:55:00,49.2,37.9,-100.00,SSE,163,4.5,6.3,64,0.00,,,-99.99,439.0,HOBO +U30 +Weather +,2013-11-12 18:55:00,
2013-11-12 12:00:00,50.0,37.6,-100.00,South,170,4.0,8.5,62,0.00,,,-99.99,439.0,HOBO +U30 +Weather +,2013-11-12 19:00:00,
2013-11-12 12:05:00,50.7,38.2,-100.00,South,173,4.0,6.7,62,0.00,,,-99.99,438.0,HOBO +U30 +Weather +,2013-11-12 19:05:00,
2013-11-12 12:10:00,51.1,37.6,-100.00,South,187,3.4,5.6,59,0.00,,,-99.99,438.0,HOBO +U30 +Weather +,2013-11-12 19:10:00,
2013-11-12 12:23:00,50.3,37.1,-100.00,SSW,192,4.5,6.3,60,0.00,,,-99.99,436.0,HOBO +U30 +Weather +,2013-11-12 19:23:00,
2013-11-12 12:25:00,50.7,37.3,-100.00,SSE,149,4.0,6.3,59,0.00,,,-99.99,433.0,HOBO +U30 +Weather +,2013-11-12 19:25:00,
2013-11-12 12:30:00,51.2,38.4,-100.00,SE,145,4.0,5.6,61,0.00,,,-99.99,431.0,HOBO +U30 +Weather +,2013-11-12 19:30:00,
2013-11-12 12:35:00,50.7,37.8,-100.00,SSE,153,4.5,6.7,61,0.00,,,-99.99,429.0,HOBO +U30 +Weather +,2013-11-12 19:35:00,
2013-11-12 12:40:00,51.0,37.8,-100.00,SE,146,4.5,6.7,60,0.00,,,-99.99,426.0,HOBO +U30 +Weather +,2013-11-12 19:40:00,
2013-11-12 12:45:00,51.5,38.2,-100.00,SE,133,4.5,6.3,60,0.00,,,-99.99,422.0,HOBO +U30 +Weather +,2013-11-12 19:45:00,
2013-11-12 12:50:00,52.6,38.2,-100.00,SE,136,3.4,5.6,57,0.00,,,-99.99,417.0,HOBO +U30 +Weather +,2013-11-12 19:50:00,
2013-11-12 12:55:00,54.1,38.6,-100.00,SE,139,1.8,4.0,55,0.00,,,-99.99,413.0,HOBO +U30 +Weather +,2013-11-12 19:55:00,
2013-11-12 13:00:00,55.3,38.3,-100.00,SSE,149,1.8,4.0,52,0.00,,,-99.99,408.0,HOBO +U30 +Weather +,2013-11-12 20:00:00,
2013-11-12 13:05:00,55.5,38.8,-100.00,SSE,150,1.1,4.0,53,0.00,,,-99.99,402.0,HOBO +U30 +Weather +,2013-11-12 20:05:00,
2013-11-12 13:10:00,55.3,38.5,-100.00,SE,142,1.8,4.0,53,0.00,,,-99.99,394.0,HOBO +U30 +Weather +,2013-11-12 20:10:00,
2013-11-12 13:22:00,55.6,38.8,-100.00,SE,140,1.8,4.0,53,0.00,,,-99.99,393.0,HOBO +U30 +Weather +,2013-11-12 20:22:00,
2013-11-12 13:25:00,54.3,38.7,-100.00,NE,44,1.8,4.0,55,0.00,,,-99.99,382.0,HOBO +U30 +Weather +,2013-11-12 20:25:00,
2013-11-12 13:30:00,54.6,38.7,-100.00,NE,42,1.8,3.4,54,0.00,,,-99.99,381.0,HOBO +U30 +Weather +,2013-11-12 20:30:00,
2013-11-12 13:35:00,55.2,38.6,-100.00,NE,42,1.1,2.9,53,0.00,,,-99.99,372.0,HOBO +U30 +Weather +,2013-11-12 20:35:00,
2013-11-12 13:40:00,55.3,39.1,-100.00,NE,44,2.2,4.0,54,0.00,,,-99.99,367.0,HOBO +U30 +Weather +,2013-11-12 20:40:00,
2013-11-12 13:45:00,55.0,39.1,-100.00,NE,39,3.4,5.1,54,0.00,,,-99.99,361.0,HOBO +U30 +Weather +,2013-11-12 20:45:00,
2013-11-12 13:50:00,54.9,39.1,-100.00,NE,37,4.5,6.3,55,0.00,,,-99.99,353.0,HOBO +U30 +Weather +,2013-11-12 20:50:00,
2013-11-12 13:55:00,54.4,38.9,-100.00,NE,35,4.0,5.6,55,0.00,,,-99.99,337.0,HOBO +U30 +Weather +,2013-11-12 20:55:00,
2013-11-12 14:00:00,54.9,39.3,-100.00,NE,39,3.4,5.6,55,0.00,,,-99.99,324.0,HOBO +U30 +Weather +,2013-11-12 21:00:00,
2013-11-12 14:05:00,55.0,39.8,-100.00,NNE,32,3.4,5.1,56,0.00,,,-99.99,313.0,HOBO +U30 +Weather +,2013-11-12 21:05:00,
2013-11-12 14:10:00,54.1,39.8,-100.00,NE,35,4.5,6.7,58,0.00,,,-99.99,322.0,HOBO +U30 +Weather +,2013-11-12 21:10:00,
2013-11-12 14:20:00,54.8,40.0,-100.00,NNE,13,1.8,3.4,57,0.00,,,-99.99,306.0,HOBO +U30 +Weather +,2013-11-12 21:20:00,
2013-11-12 14:21:00,54.6,40.2,-100.00,NNE,32,2.9,4.0,58,0.00,,,-99.99,313.0,HOBO +U30 +Weather +,2013-11-12 21:21:00,
2013-11-12 14:25:00,55.3,40.1,-100.00,NNE,13,1.1,3.4,56,0.00,,,-99.99,302.0,HOBO +U30 +Weather +,2013-11-12 21:25:00,
2013-11-12 14:30:00,56.8,41.1,-100.00,NNE,13,0.7,2.2,55,0.00,,,-99.99,293.0,HOBO +U30 +Weather +,2013-11-12 21:30:00,
2013-11-12 14:35:00,59.7,40.5,-100.00,WNW,285,1.1,7.4,48,0.00,,,-99.99,283.0,HOBO +U30 +Weather +,2013-11-12 21:35:00,
2013-11-12 14:40:00,61.2,35.9,-100.00,WSW,240,4.5,11.2,38,0.00,,,-99.99,276.0,HOBO +U30 +Weather +,2013-11-12 21:40:00,
2013-11-12 14:45:00,62.4,34.8,-100.00,WSW,246,6.3,10.7,35,0.00,,,-99.99,267.0,HOBO +U30 +Weather +,2013-11-12 21:45:00,
2013-11-12 14:50:00,62.2,34.0,-100.00,WSW,247,9.6,14.5,34,0.00,,,-99.99,258.0,HOBO +U30 +Weather +,2013-11-12 21:50:00,
2013-11-12 14:55:00,62.1,33.9,-100.00,WSW,241,7.8,12.3,34,0.00,,,-99.99,182.0,HOBO +U30 +Weather +,2013-11-12 21:55:00,
2013-11-12 15:00:00,61.8,34.1,-100.00,WSW,254,6.7,13.0,35,0.00,,,-99.99,219.0,HOBO +U30 +Weather +,2013-11-12 22:00:00,
2013-11-12 15:05:00,61.7,34.0,-100.00,WSW,254,5.6,10.1,35,0.00,,,-99.99,228.0,HOBO +U30 +Weather +,2013-11-12 22:05:00,
2013-11-12 15:19:00,61.8,34.1,-100.00,WSW,243,7.8,13.0,35,0.00,,,-99.99,216.0,HOBO +U30 +Weather +,2013-11-12 22:19:00,
2013-11-12 15:20:00,61.3,33.2,-100.00,WSW,247,8.5,15.2,34,0.00,,,-99.99,194.0,HOBO +U30 +Weather +,2013-11-12 22:20:00,
2013-11-12 15:25:00,61.3,33.1,-100.00,WSW,243,11.9,16.3,34,0.00,,,-99.99,187.0,HOBO +U30 +Weather +,2013-11-12 22:25:00,
2013-11-12 15:30:00,61.2,33.2,-100.00,WSW,243,10.7,15.9,34,0.00,,,-99.99,167.0,HOBO +U30 +Weather +,2013-11-12 22:30:00,
2013-11-12 15:35:00,61.1,33.2,-100.00,WSW,244,8.9,15.2,34,0.00,,,-99.99,147.0,HOBO +U30 +Weather +,2013-11-12 22:35:00,
2013-11-12 15:40:00,61.1,33.0,-100.00,WSW,246,8.9,14.5,34,0.00,,,-99.99,153.0,HOBO +U30 +Weather +,2013-11-12 22:40:00,
2013-11-12 15:45:00,61.1,32.9,-100.00,WSW,248,7.4,11.2,34,0.00,,,-99.99,138.0,HOBO +U30 +Weather +,2013-11-12 22:45:00,
2013-11-12 15:50:00,61.1,32.6,-100.00,WSW,240,7.8,13.0,34,0.00,,,-99.99,136.0,HOBO +U30 +Weather +,2013-11-12 22:50:00,
2013-11-12 15:55:00,61.2,32.4,-100.00,SW,234,5.6,10.1,33,0.00,,,-99.99,126.0,HOBO +U30 +Weather +,2013-11-12 22:55:00,
2013-11-12 16:00:00,61.0,32.3,-100.00,WSW,237,7.4,12.3,33,0.00,,,-99.99,61.0,HOBO +U30 +Weather +,2013-11-12 23:00:00,
2013-11-12 16:05:00,60.4,32.1,-100.00,SW,233,6.7,11.9,34,0.00,,,-99.99,32.0,HOBO +U30 +Weather +,2013-11-12 23:05:00,
2013-11-12 16:18:00,60.2,31.9,-100.00,SW,232,6.7,11.9,34,0.00,,,-99.99,31.0,HOBO +U30 +Weather +,2013-11-12 23:18:00,
2013-11-12 16:20:00,60.2,31.5,-100.00,SW,230,6.7,11.2,33,0.00,,,-99.99,27.0,HOBO +U30 +Weather +,2013-11-12 23:20:00,
2013-11-12 16:25:00,59.7,31.7,-100.00,SW,232,5.6,10.7,34,0.00,,,-99.99,28.0,HOBO +U30 +Weather +,2013-11-12 23:25:00,
2013-11-12 16:30:00,59.5,31.5,-100.00,WSW,237,7.8,13.0,34,0.00,,,-99.99,27.0,HOBO +U30 +Weather +,2013-11-12 23:30:00,
2013-11-12 16:35:00,59.2,31.7,-100.00,WSW,239,9.6,14.1,35,0.00,,,-99.99,17.0,HOBO +U30 +Weather +,2013-11-12 23:35:00,
2013-11-12 16:40:00,58.7,31.6,-100.00,WSW,241,10.7,15.9,35,0.00,,,-99.99,9.0,HOBO +U30 +Weather +,2013-11-12 23:40:00,
2013-11-12 16:45:00,58.5,31.8,-100.00,WSW,244,10.7,17.0,36,0.00,,,-99.99,3.0,HOBO +U30 +Weather +,2013-11-12 23:45:00,
2013-11-12 16:50:00,58.1,31.6,-100.00,WSW,241,10.1,18.1,36,0.00,,,-99.99,1.0,HOBO +U30 +Weather +,2013-11-12 23:50:00,
2013-11-12 16:55:00,57.9,31.5,-100.00,WSW,246,11.2,16.3,36,0.00,,,-99.99,1.0,HOBO +U30 +Weather +,2013-11-12 23:55:00,
2013-11-12 17:00:00,58.0,31.3,-100.00,WSW,239,11.9,17.0,36,0.00,,,-99.99,1.0,HOBO +U30 +Weather +,2013-11-13 00:00:00,
2013-11-12 17:05:00,57.9,31.1,-100.00,WSW,241,12.3,17.4,36,0.00,,,-99.99,1.0,HOBO +U30 +Weather +,2013-11-13 00:05:00,
2013-11-12 17:17:00,57.7,31.0,-100.00,WSW,244,10.7,16.3,36,0.00,,,-99.99,1.0,HOBO +U30 +Weather +,2013-11-13 00:17:00,
2013-11-12 17:20:00,57.5,31.0,-100.00,SW,236,11.2,17.4,36,0.00,,,-99.99,1.0,HOBO +U30 +Weather +,2013-11-13 00:20:00,
2013-11-12 17:25:00,57.2,31.1,-100.00,WSW,239,10.1,16.3,36,0.00,,,-99.99,1.0,HOBO +U30 +Weather +,2013-11-13 00:25:00,
2013-11-12 17:30:00,57.3,30.9,-100.00,WSW,239,10.7,15.9,36,0.00,,,-99.99,1.0,HOBO +U30 +Weather +,2013-11-13 00:30:00,
2013-11-12 17:35:00,56.9,30.8,-100.00,WSW,239,8.5,13.0,36,0.00,,,-99.99,1.0,HOBO +U30 +Weather +,2013-11-13 00:35:00,
2013-11-12 17:40:00,56.9,30.8,-100.00,WSW,243,10.1,16.3,36,0.00,,,-99.99,1.0,HOBO +U30 +Weather +,2013-11-13 00:40:00,
2013-11-12 17:45:00,56.9,30.6,-100.00,WSW,243,10.7,16.3,36,0.00,,,-99.99,1.0,HOBO +U30 +Weather +,2013-11-13 00:45:00,
2013-11-12 17:50:00,56.7,30.6,-100.00,WSW,246,10.1,14.1,36,0.00,,,-99.99,1.0,HOBO +U30 +Weather +,2013-11-13 00:50:00,
2013-11-12 17:55:00,56.5,30.6,-100.00,SW,236,8.9,14.1,37,0.00,,,-99.99,1.0,HOBO +U30 +Weather +,2013-11-13 00:55:00,
2013-11-12 18:00:00,56.6,30.6,-100.00,SW,233,8.9,14.1,37,0.00,,,-99.99,1.0,HOBO +U30 +Weather +,2013-11-13 01:00:00,
2013-11-12 18:05:00,56.5,30.3,-100.00,SW,232,9.6,15.2,36,0.00,,,-99.99,1.0,HOBO +U30 +Weather +,2013-11-13 01:05:00,
2013-11-12 18:15:00,56.4,30.2,-100.00,SW,232,9.6,14.5,36,0.00,,,-99.99,1.0,HOBO +U30 +Weather +,2013-11-13 01:15:00,
2013-11-12 18:20:00,56.0,30.2,-100.00,SW,225,8.5,14.1,37,0.00,,,-99.99,1.0,HOBO +U30 +Weather +,2013-11-13 01:20:00,
2013-11-12 18:25:00,55.9,30.1,-100.00,SW,229,8.5,13.4,37,0.00,,,-99.99,1.0,HOBO +U30 +Weather +,2013-11-13 01:25:00,
2013-11-12 18:30:00,55.6,30.3,-100.00,SW,222,7.8,14.1,37,0.00,,,-99.99,1.0,HOBO +U30 +Weather +,2013-11-13 01:30:00,
2013-11-12 18:35:00,55.3,30.2,-100.00,SW,218,7.4,10.7,38,0.00,,,-99.99,1.0,HOBO +U30 +Weather +,2013-11-13 01:35:00,
2013-11-12 18:40:00,55.0,30.4,-100.00,SW,218,8.5,15.9,38,0.00,,,-99.99,1.0,HOBO +U30 +Weather +,2013-11-13 01:40:00,
2013-11-12 18:45:00,55.0,30.1,-100.00,SW,225,7.8,11.9,38,0.00,,,-99.99,1.0,HOBO +U30 +Weather +,2013-11-13 01:45:00,
2013-11-12 18:50:00,54.9,30.0,-100.00,SW,230,7.8,13.0,38,0.00,,,-99.99,1.0,HOBO +U30 +Weather +,2013-11-13 01:50:00,
2013-11-12 18:55:00,54.9,30.0,-100.00,SW,233,8.5,13.4,38,0.00,,,-99.99,1.0,HOBO +U30 +Weather +,2013-11-13 01:55:00,
2013-11-12 19:00:00,54.1,30.3,-100.00,SSW,211,6.7,11.2,39,0.00,,,-99.99,1.0,HOBO +U30 +Weather +,2013-11-13 02:00:00,
2013-11-12 19:14:00,53.5,30.4,-100.00,SSW,201,7.4,12.3,40,0.00,,,-99.99,1.0,HOBO +U30 +Weather +,2013-11-13 02:14:00,
2013-11-12 19:15:00,52.5,30.4,-100.00,South,190,6.3,8.5,42,0.00,,,-99.99,1.0,HOBO +U30 +Weather +,2013-11-13 02:15:00,
2013-11-12 19:20:00,52.5,30.4,-100.00,South,191,6.7,9.6,42,0.00,,,-99.99,1.0,HOBO +U30 +Weather +,2013-11-13 02:20:00,
2013-11-12 19:25:00,52.5,30.6,-100.00,SSW,195,6.7,8.9,42,0.00,,,-99.99,1.0,HOBO +U30 +Weather +,2013-11-13 02:25:00,
2013-11-12 19:30:00,52.5,30.6,-100.00,SSW,198,7.8,10.1,42,0.00,,,-99.99,1.0,HOBO +U30 +Weather +,2013-11-13 02:30:00,
2013-11-12 19:35:00,52.3,30.4,-100.00,SSW,201,6.7,11.2,42,0.00,,,-99.99,1.0,HOBO +U30 +Weather +,2013-11-13 02:35:00,
2013-11-12 19:40:00,52.2,30.4,-100.00,SSW,199,6.7,8.9,42,0.00,,,-99.99,1.0,HOBO +U30 +Weather +,2013-11-13 02:40:00,
2013-11-12 19:45:00,51.9,30.3,-100.00,SSW,194,6.7,9.6,43,0.00,,,-99.99,1.0,HOBO +U30 +Weather +,2013-11-13 02:45:00,
2013-11-12 19:50:00,52.5,30.4,-100.00,SSW,208,6.7,10.7,42,0.00,,,-99.99,1.0,HOBO +U30 +Weather +,2013-11-13 02:50:00,
2013-11-12 19:55:00,53.1,30.4,-100.00,SSW,213,5.6,10.1,41,0.00,,,-99.99,1.0,HOBO +U30 +Weather +,2013-11-13 02:55:00,
2013-11-12 20:00:00,53.7,30.1,-100.00,SW,218,5.6,8.5,40,0.00,,,-99.99,1.0,HOBO +U30 +Weather +,2013-11-13 03:00:00,
2013-11-12 20:13:00,53.1,30.1,-100.00,SSW,204,5.6,10.1,41,0.00,,,-99.99,1.0,HOBO +U30 +Weather +,2013-11-13 03:13:00,
2013-11-12 20:15:00,51.1,30.5,-100.00,South,170,4.5,7.4,45,0.00,,,-99.99,1.0,HOBO +U30 +Weather +,2013-11-13 03:15:00,
2013-11-12 20:20:00,50.5,30.6,-100.00,South,173,4.5,7.4,46,0.00,,,-99.99,1.0,HOBO +U30 +Weather +,2013-11-13 03:20:00,
2013-11-12 20:25:00,51.1,30.5,-100.00,South,190,4.5,6.3,45,0.00,,,-99.99,1.0,HOBO +U30 +Weather +,2013-11-13 03:25:00,
2013-11-12 20:30:00,51.2,30.4,-100.00,South,190,4.0,5.6,44,0.00,,,-99.99,1.0,HOBO +U30 +Weather +,2013-11-13 03:30:00,
2013-11-12 20:35:00,51.3,30.4,-100.00,SSW,197,4.0,7.4,44,0.00,,,-99.99,1.0,HOBO +U30 +Weather +,2013-11-13 03:35:00,
2013-11-12 20:40:00,51.0,30.2,-100.00,SSW,192,4.5,7.4,44,0.00,,,-99.99,1.0,HOBO +U30 +Weather +,2013-11-13 03:40:00,
2013-11-12 20:45:00,51.0,30.4,-100.00,South,180,5.1,9.6,44,0.00,,,-99.99,1.0,HOBO +U30 +Weather +,2013-11-13 03:45:00,
2013-11-12 20:50:00,50.5,30.5,-100.00,South,173,5.6,8.5,45,0.00,,,-99.99,1.0,HOBO +U30 +Weather +,2013-11-13 03:50:00,
2013-11-12 20:55:00,49.9,30.6,-100.00,South,173,5.6,8.5,47,0.00,,,-99.99,1.0,HOBO +U30 +Weather +,2013-11-13 03:55:00,
2013-11-12 21:00:00,49.5,30.8,-100.00,South,183,5.6,8.9,48,0.00,,,-99.99,1.0,HOBO +U30 +Weather +,2013-11-13 04:00:00,
2013-11-12 21:11:00,50.6,30.6,-100.00,SSW,197,5.6,13.0,45,0.00,,,-99.99,1.0,HOBO +U30 +Weather +,2013-11-13 04:11:00,
2013-11-12 21:15:00,53.9,29.9,-100.00,SW,230,7.8,14.5,39,0.00,,,-99.99,1.0,HOBO +U30 +Weather +,2013-11-13 04:15:00,
2013-11-12 21:20:00,54.0,30.0,-100.00,SW,236,8.5,15.9,39,0.00,,,-99.99,1.0,HOBO +U30 +Weather +,2013-11-13 04:20:00,
2013-11-12 21:25:00,54.1,29.9,-100.00,SW,236,10.7,18.6,39,0.00,,,-99.99,1.0,HOBO +U30 +Weather +,2013-11-13 04:25:00,
2013-11-12 21:30:00,54.0,29.8,-100.00,WSW,239,9.6,15.2,39,0.00,,,-99.99,1.0,HOBO +U30 +Weather +,2013-11-13 04:30:00,
2013-11-12 21:35:00,54.2,29.7,-100.00,WSW,243,10.1,15.9,38,0.00,,,-99.99,1.0,HOBO +U30 +Weather +,2013-11-13 04:35:00,
2013-11-12 21:40:00,54.1,29.8,-100.00,SW,230,10.1,17.0,39,0.00,,,-99.99,1.0,HOBO +U30 +Weather +,2013-11-13 04:40:00,
2013-11-12 21:45:00,54.2,29.8,-100.00,SW,227,8.9,13.4,38,0.00,,,-99.99,1.0,HOBO +U30 +Weather +,2013-11-13 04:45:00,
2013-11-12 21:50:00,54.3,29.8,-100.00,SW,227,7.8,14.5,38,0.00,,,-99.99,1.0,HOBO +U30 +Weather +,2013-11-13 04:50:00,
2013-11-12 21:55:00,54.4,29.8,-100.00,SW,229,9.6,17.4,38,0.00,,,-99.99,1.0,HOBO +U30 +Weather +,2013-11-13 04:55:00,
2013-11-12 22:00:00,54.3,29.8,-100.00,SW,225,8.5,12.3,38,0.00,,,-99.99,1.0,HOBO +U30 +Weather +,2013-11-13 05:00:00,
2013-11-12 22:05:00,54.5,29.8,-100.00,SW,219,8.9,15.2,38,0.00,,,-99.99,1.0,HOBO +U30 +Weather +,2013-11-13 05:05:00,
2013-11-12 22:10:00,54.6,29.9,-100.00,SW,226,8.5,14.1,38,0.00,,,-99.99,1.0,HOBO +U30 +Weather +,2013-11-13 05:10:00,
2013-11-12 22:15:00,54.4,30.0,-100.00,SW,225,7.4,13.0,39,0.00,,,-99.99,1.0,HOBO +U30 +Weather +,2013-11-13 05:15:00,
2013-11-12 22:20:00,54.5,30.0,-100.00,SW,230,6.3,10.7,38,0.00,,,-99.99,1.0,HOBO +U30 +Weather +,2013-11-13 05:20:00,
2013-11-12 22:25:00,54.5,30.2,-100.00,SW,226,5.6,10.7,39,0.00,,,-99.99,1.0,HOBO +U30 +Weather +,2013-11-13 05:25:00,
2013-11-12 22:30:00,54.4,30.1,-100.00,SW,222,5.6,11.2,39,0.00,,,-99.99,1.0,HOBO +U30 +Weather +,2013-11-13 05:30:00,
2013-11-12 22:35:00,54.8,30.2,-100.00,SW,230,7.4,14.1,38,0.00,,,-99.99,1.0,HOBO +U30 +Weather +,2013-11-13 05:35:00,
2013-11-12 22:40:00,54.5,30.3,-100.00,SW,218,6.7,11.9,39,0.00,,,-99.99,1.0,HOBO +U30 +Weather +,2013-11-13 05:40:00,
2013-11-12 22:45:00,54.7,30.2,-100.00,SW,230,5.6,11.2,38,0.00,,,-99.99,1.0,HOBO +U30 +Weather +,2013-11-13 05:45:00,
2013-11-12 22:50:00,55.0,30.3,-100.00,SW,227,7.8,14.5,38,0.00,,,-99.99,1.0,HOBO +U30 +Weather +,2013-11-13 05:50:00,
2013-11-12 22:55:00,54.5,30.5,-100.00,SW,220,7.8,13.0,39,0.00,,,-99.99,1.0,HOBO +U30 +Weather +,2013-11-13 05:55:00,
2013-11-12 23:09:00,54.8,30.3,-100.00,WSW,241,8.5,15.9,38,0.00,,,-99.99,1.0,HOBO +U30 +Weather +,2013-11-13 06:09:00,
2013-11-12 23:10:00,54.9,30.3,-100.00,SW,229,10.1,17.0,38,0.00,,,-99.99,1.0,HOBO +U30 +Weather +,2013-11-13 06:10:00,
2013-11-12 23:15:00,55.0,30.2,-100.00,SW,229,8.9,14.1,38,0.00,,,-99.99,1.0,HOBO +U30 +Weather +,2013-11-13 06:15:00,
2013-11-12 23:20:00,55.1,30.1,-100.00,SW,226,8.9,13.0,38,0.00,,,-99.99,1.0,HOBO +U30 +Weather +,2013-11-13 06:20:00,
2013-11-12 23:25:00,54.9,30.1,-100.00,SW,229,8.5,14.5,38,0.00,,,-99.99,1.0,HOBO +U30 +Weather +,2013-11-13 06:25:00,
2013-11-12 23:30:00,54.6,30.1,-100.00,SW,233,7.4,12.3,38,0.00,,,-99.99,1.0,HOBO +U30 +Weather +,2013-11-13 06:30:00,
2013-11-12 23:35:00,54.1,30.3,-100.00,SW,226,5.1,8.5,40,0.00,,,-99.99,1.0,HOBO +U30 +Weather +,2013-11-13 06:35:00,
2013-11-12 23:40:00,53.9,30.4,-100.00,SW,220,5.6,11.9,40,0.00,,,-99.99,1.0,HOBO +U30 +Weather +,2013-11-13 06:40:00,
2013-11-12 23:45:00,52.7,30.7,-100.00,SSW,195,6.3,8.5,42,0.00,,,-99.99,1.0,HOBO +U30 +Weather +,2013-11-13 06:45:00,
2013-11-12 23:50:00,52.2,30.8,-100.00,South,184,5.6,8.5,43,0.00,,,-99.99,1.0,HOBO +U30 +Weather +,2013-11-13 06:50:00,
2013-11-12 23:55:00,50.5,31.2,-100.00,South,170,2.9,5.1,47,0.00,,,-99.99,1.0,HOBO +U30 +Weather +,2013-11-13 06:55:00,